sensor_id;sensor_type;location;lat;lon;timestamp;P1;durP1;ratioP1;P2;durP2;ratioP2
76801;SDS011;66403;50.832;10.950;2023-04-15T00:03:07;8.95;;;5.22;;
76801;SDS011;66403;50.832;10.950;2023-04-15T00:08:07;5.65;;;4.75;;
76801;SDS011;66403;50.832;10.950;2023-04-15T00:13:08;6.70;;;4.40;;
76801;SDS011;66403;50.832;10.950;2023-04-15T00:18:09;6.43;;;4.40;;
76801;SDS011;66403;50.832;10.950;2023-04-15T00:23:09;5.55;;;3.92;;
76801;SDS011;66403;50.832;10.950;2023-04-15T00:28:10;6.25;;;4.72;;
76801;SDS011;66403;50.832;10.950;2023-04-15T00:33:11;5.80;;;4.15;;
76801;SDS011;66403;50.832;10.950;2023-04-15T00:38:12;5.43;;;3.95;;
76801;SDS011;66403;50.832;10.950;2023-04-15T00:43:12;7.03;;;4.55;;
76801;SDS011;66403;50.832;10.950;2023-04-15T00:48:13;6.45;;;4.25;;
76801;SDS011;66403;50.832;10.950;2023-04-15T00:53:14;5.85;;;3.80;;
76801;SDS011;66403;50.832;10.950;2023-04-15T00:58:14;5.72;;;3.95;;
76801;SDS011;66403;50.832;10.950;2023-04-15T01:03:15;5.05;;;3.55;;
76801;SDS011;66403;50.832;10.950;2023-04-15T01:08:16;5.85;;;4.25;;
76801;SDS011;66403;50.832;10.950;2023-04-15T01:13:16;4.13;;;3.38;;
76801;SDS011;66403;50.832;10.950;2023-04-15T01:18:17;7.05;;;4.05;;
76801;SDS011;66403;50.832;10.950;2023-04-15T01:23:18;6.03;;;3.63;;
76801;SDS011;66403;50.832;10.950;2023-04-15T01:28:20;6.00;;;3.78;;
76801;SDS011;66403;50.832;10.950;2023-04-15T01:33:20;5.65;;;3.92;;
76801;SDS011;66403;50.832;10.950;2023-04-15T01:38:21;5.82;;;4.20;;
76801;SDS011;66403;50.832;10.950;2023-04-15T01:43:21;4.53;;;3.78;;
76801;SDS011;66403;50.832;10.950;2023-04-15T01:48:22;6.07;;;3.47;;
76801;SDS011;66403;50.832;10.950;2023-04-15T01:53:25;4.90;;;3.58;;
76801;SDS011;66403;50.832;10.950;2023-04-15T01:58:26;7.28;;;3.63;;
76801;SDS011;66403;50.832;10.950;2023-04-15T02:03:27;6.95;;;3.95;;
76801;SDS011;66403;50.832;10.950;2023-04-15T02:08:28;5.20;;;3.75;;
76801;SDS011;66403;50.832;10.950;2023-04-15T02:13:29;4.93;;;3.53;;
76801;SDS011;66403;50.832;10.950;2023-04-15T02:18:30;5.28;;;3.65;;
76801;SDS011;66403;50.832;10.950;2023-04-15T02:23:31;6.03;;;3.63;;
76801;SDS011;66403;50.832;10.950;2023-04-15T02:28:31;6.53;;;3.95;;
76801;SDS011;66403;50.832;10.950;2023-04-15T02:33:32;4.63;;;3.65;;
76801;SDS011;66403;50.832;10.950;2023-04-15T02:38:34;6.13;;;3.67;;
76801;SDS011;66403;50.832;10.950;2023-04-15T02:43:34;7.93;;;4.47;;
76801;SDS011;66403;50.832;10.950;2023-04-15T02:48:35;5.45;;;4.05;;
76801;SDS011;66403;50.832;10.950;2023-04-15T02:53:37;6.43;;;4.40;;
76801;SDS011;66403;50.832;10.950;2023-04-15T02:58:38;5.28;;;3.80;;
76801;SDS011;66403;50.832;10.950;2023-04-15T03:03:39;7.70;;;4.78;;
76801;SDS011;66403;50.832;10.950;2023-04-15T03:08:40;6.55;;;4.60;;
76801;SDS011;66403;50.832;10.950;2023-04-15T03:13:40;6.90;;;4.57;;
76801;SDS011;66403;50.832;10.950;2023-04-15T03:18:49;8.57;;;5.68;;
76801;SDS011;66403;50.832;10.950;2023-04-15T03:23:50;5.25;;;4.20;;
76801;SDS011;66403;50.832;10.950;2023-04-15T03:28:51;5.57;;;4.60;;
76801;SDS011;66403;50.832;10.950;2023-04-15T03:33:52;7.70;;;5.15;;
76801;SDS011;66403;50.832;10.950;2023-04-15T03:38:52;9.48;;;5.20;;
76801;SDS011;66403;50.832;10.950;2023-04-15T03:43:54;7.38;;;5.63;;
76801;SDS011;66403;50.832;10.950;2023-04-15T03:48:54;10.07;;;6.40;;
76801;SDS011;66403;50.832;10.950;2023-04-15T03:53:55;10.38;;;6.40;;
76801;SDS011;66403;50.832;10.950;2023-04-15T03:58:56;12.30;;;6.72;;
76801;SDS011;66403;50.832;10.950;2023-04-15T04:03:56;10.48;;;7.38;;
76801;SDS011;66403;50.832;10.950;2023-04-15T04:08:56;10.23;;;6.68;;
76801;SDS011;66403;50.832;10.950;2023-04-15T04:13:57;14.15;;;8.07;;
76801;SDS011;66403;50.832;10.950;2023-04-15T04:18:57;13.38;;;7.93;;
76801;SDS011;66403;50.832;10.950;2023-04-15T04:23:58;11.32;;;6.45;;
76801;SDS011;66403;50.832;10.950;2023-04-15T04:28:58;12.18;;;7.75;;
76801;SDS011;66403;50.832;10.950;2023-04-15T04:33:59;12.25;;;7.72;;
76801;SDS011;66403;50.832;10.950;2023-04-15T04:38:59;11.88;;;6.55;;
76801;SDS011;66403;50.832;10.950;2023-04-15T04:44:00;10.35;;;7.10;;
76801;SDS011;66403;50.832;10.950;2023-04-15T04:49:00;9.60;;;6.82;;
76801;SDS011;66403;50.832;10.950;2023-04-15T04:54:01;9.07;;;5.60;;
76801;SDS011;66403;50.832;10.950;2023-04-15T04:59:01;13.25;;;6.65;;
76801;SDS011;66403;50.832;10.950;2023-04-15T05:04:02;14.45;;;7.07;;
76801;SDS011;66403;50.832;10.950;2023-04-15T05:09:03;9.60;;;6.72;;
76801;SDS011;66403;50.832;10.950;2023-04-15T05:14:04;9.05;;;5.82;;
76801;SDS011;66403;50.832;10.950;2023-04-15T05:19:04;12.02;;;6.88;;
76801;SDS011;66403;50.832;10.950;2023-04-15T05:24:05;9.73;;;6.03;;
76801;SDS011;66403;50.832;10.950;2023-04-15T05:29:06;9.95;;;5.53;;
76801;SDS011;66403;50.832;10.950;2023-04-15T05:34:06;10.00;;;6.57;;
76801;SDS011;66403;50.832;10.950;2023-04-15T05:39:07;7.93;;;5.57;;
76801;SDS011;66403;50.832;10.950;2023-04-15T05:44:08;9.27;;;5.70;;
76801;SDS011;66403;50.832;10.950;2023-04-15T05:49:08;8.07;;;5.90;;
76801;SDS011;66403;50.832;10.950;2023-04-15T05:54:08;8.95;;;5.65;;
76801;SDS011;66403;50.832;10.950;2023-04-15T05:59:09;7.60;;;5.80;;
76801;SDS011;66403;50.832;10.950;2023-04-15T06:04:10;7.00;;;5.00;;
76801;SDS011;66403;50.832;10.950;2023-04-15T06:09:11;9.00;;;5.57;;
76801;SDS011;66403;50.832;10.950;2023-04-15T06:14:11;10.10;;;5.63;;
76801;SDS011;66403;50.832;10.950;2023-04-15T06:19:12;9.68;;;5.65;;
76801;SDS011;66403;50.832;10.950;2023-04-15T06:24:13;7.38;;;5.53;;
76801;SDS011;66403;50.832;10.950;2023-04-15T06:29:14;7.43;;;5.32;;
76801;SDS011;66403;50.832;10.950;2023-04-15T06:34:14;6.53;;;4.85;;
76801;SDS011;66403;50.832;10.950;2023-04-15T06:39:14;7.25;;;4.78;;
76801;SDS011;66403;50.832;10.950;2023-04-15T06:44:15;9.30;;;5.05;;
76801;SDS011;66403;50.832;10.950;2023-04-15T06:49:16;8.95;;;5.30;;
76801;SDS011;66403;50.832;10.950;2023-04-15T06:54:17;8.65;;;5.35;;
76801;SDS011;66403;50.832;10.950;2023-04-15T06:59:17;7.05;;;5.28;;
76801;SDS011;66403;50.832;10.950;2023-04-15T07:04:18;8.57;;;4.72;;
76801;SDS011;66403;50.832;10.950;2023-04-15T07:09:18;6.85;;;3.95;;
76801;SDS011;66403;50.832;10.950;2023-04-15T07:14:18;7.15;;;4.10;;
76801;SDS011;66403;50.832;10.950;2023-04-15T07:19:19;7.65;;;3.88;;
76801;SDS011;66403;50.832;10.950;2023-04-15T07:24:20;6.95;;;4.22;;
76801;SDS011;66403;50.832;10.950;2023-04-15T07:29:22;7.40;;;3.72;;
76801;SDS011;66403;50.832;10.950;2023-04-15T07:34:22;6.07;;;4.45;;
76801;SDS011;66403;50.832;10.950;2023-04-15T07:39:23;5.43;;;3.70;;
76801;SDS011;66403;50.832;10.950;2023-04-15T07:44:24;9.60;;;4.72;;
76801;SDS011;66403;50.832;10.950;2023-04-15T07:49:25;6.65;;;3.97;;
76801;SDS011;66403;50.832;10.950;2023-04-15T07:54:26;6.72;;;3.97;;
76801;SDS011;66403;50.832;10.950;2023-04-15T07:59:26;5.93;;;4.22;;
76801;SDS011;66403;50.832;10.950;2023-04-15T08:04:29;5.45;;;3.53;;
76801;SDS011;66403;50.832;10.950;2023-04-15T08:09:30;5.30;;;3.55;;
76801;SDS011;66403;50.832;10.950;2023-04-15T08:14:31;5.28;;;3.55;;
76801;SDS011;66403;50.832;10.950;2023-04-15T08:19:31;5.38;;;3.38;;
76801;SDS011;66403;50.832;10.950;2023-04-15T08:24:31;4.60;;;3.17;;
76801;SDS011;66403;50.832;10.950;2023-04-15T08:29:32;5.10;;;3.28;;
76801;SDS011;66403;50.832;10.950;2023-04-15T08:34:33;6.50;;;3.30;;
76801;SDS011;66403;50.832;10.950;2023-04-15T08:39:33;5.53;;;3.42;;
76801;SDS011;66403;50.832;10.950;2023-04-15T08:44:34;4.50;;;2.67;;
76801;SDS011;66403;50.832;10.950;2023-04-15T08:49:38;3.85;;;2.75;;
76801;SDS011;66403;50.832;10.950;2023-04-15T08:54:39;3.25;;;2.47;;
76801;SDS011;66403;50.832;10.950;2023-04-15T08:59:41;4.25;;;2.75;;
76801;SDS011;66403;50.832;10.950;2023-04-15T09:04:41;4.05;;;2.35;;
76801;SDS011;66403;50.832;10.950;2023-04-15T09:09:42;4.05;;;2.80;;
76801;SDS011;66403;50.832;10.950;2023-04-15T09:14:44;5.78;;;2.65;;
76801;SDS011;66403;50.832;10.950;2023-04-15T09:19:45;6.60;;;3.13;;
76801;SDS011;66403;50.832;10.950;2023-04-15T09:24:46;4.10;;;2.70;;
76801;SDS011;66403;50.832;10.950;2023-04-15T09:29:48;3.95;;;2.13;;
76801;SDS011;66403;50.832;10.950;2023-04-15T09:34:49;4.35;;;3.00;;
76801;SDS011;66403;50.832;10.950;2023-04-15T09:39:50;5.18;;;3.30;;
76801;SDS011;66403;50.832;10.950;2023-04-15T09:44:51;4.03;;;2.17;;
76801;SDS011;66403;50.832;10.950;2023-04-15T09:49:55;3.65;;;1.85;;
76801;SDS011;66403;50.832;10.950;2023-04-15T09:54:57;3.08;;;2.13;;
76801;SDS011;66403;50.832;10.950;2023-04-15T09:59:58;2.78;;;1.80;;
76801;SDS011;66403;50.832;10.950;2023-04-15T10:04:59;2.55;;;1.65;;
76801;SDS011;66403;50.832;10.950;2023-04-15T10:10:00;2.80;;;1.77;;
76801;SDS011;66403;50.832;10.950;2023-04-15T10:15:04;2.88;;;1.70;;
76801;SDS011;66403;50.832;10.950;2023-04-15T10:20:06;3.95;;;1.73;;
76801;SDS011;66403;50.832;10.950;2023-04-15T10:25:08;1.70;;;1.33;;
76801;SDS011;66403;50.832;10.950;2023-04-15T10:30:09;3.08;;;1.80;;
76801;SDS011;66403;50.832;10.950;2023-04-15T10:35:10;2.78;;;2.15;;
76801;SDS011;66403;50.832;10.950;2023-04-15T10:45:34;3.65;;;2.05;;
76801;SDS011;66403;50.832;10.950;2023-04-15T10:50:38;2.40;;;1.48;;
76801;SDS011;66403;50.832;10.950;2023-04-15T10:55:38;3.30;;;1.95;;
76801;SDS011;66403;50.832;10.950;2023-04-15T11:00:39;5.88;;;2.75;;
76801;SDS011;66403;50.832;10.950;2023-04-15T11:15:41;2.58;;;1.83;;
76801;SDS011;66403;50.832;10.950;2023-04-15T11:20:47;3.03;;;2.08;;
76801;SDS011;66403;50.832;10.950;2023-04-15T11:25:50;5.03;;;2.72;;
76801;SDS011;66403;50.832;10.950;2023-04-15T11:30:51;4.40;;;2.00;;
76801;SDS011;66403;50.832;10.950;2023-04-15T11:35:52;5.15;;;2.20;;
76801;SDS011;66403;50.832;10.950;2023-04-15T11:40:55;3.00;;;1.80;;
76801;SDS011;66403;50.832;10.950;2023-04-15T11:45:56;2.75;;;1.50;;
76801;SDS011;66403;50.832;10.950;2023-04-15T11:50:59;3.10;;;1.60;;
76801;SDS011;66403;50.832;10.950;2023-04-15T11:56:04;1.90;;;1.60;;
76801;SDS011;66403;50.832;10.950;2023-04-15T12:01:05;3.88;;;1.67;;
76801;SDS011;66403;50.832;10.950;2023-04-15T12:16:26;2.55;;;1.70;;
76801;SDS011;66403;50.832;10.950;2023-04-15T12:21:32;5.63;;;1.55;;
76801;SDS011;66403;50.832;10.950;2023-04-15T12:26:35;2.40;;;1.65;;
76801;SDS011;66403;50.832;10.950;2023-04-15T12:31:54;2.45;;;1.42;;
76801;SDS011;66403;50.832;10.950;2023-04-15T12:36:59;2.38;;;1.67;;
76801;SDS011;66403;50.832;10.950;2023-04-15T12:42:02;2.70;;;1.67;;
76801;SDS011;66403;50.832;10.950;2023-04-15T12:47:03;1.52;;;1.15;;
76801;SDS011;66403;50.832;10.950;2023-04-15T12:52:04;2.75;;;1.73;;
76801;SDS011;66403;50.832;10.950;2023-04-15T12:57:04;3.17;;;1.90;;
76801;SDS011;66403;50.832;10.950;2023-04-15T13:02:05;2.47;;;1.52;;
76801;SDS011;66403;50.832;10.950;2023-04-15T13:07:06;2.90;;;1.80;;
76801;SDS011;66403;50.832;10.950;2023-04-15T13:12:06;2.45;;;1.35;;
76801;SDS011;66403;50.832;10.950;2023-04-15T13:17:07;2.63;;;1.80;;
76801;SDS011;66403;50.832;10.950;2023-04-15T13:22:09;3.15;;;1.83;;
76801;SDS011;66403;50.832;10.950;2023-04-15T13:27:10;4.20;;;2.28;;
76801;SDS011;66403;50.832;10.950;2023-04-15T13:32:11;3.47;;;1.88;;
76801;SDS011;66403;50.832;10.950;2023-04-15T13:37:11;3.17;;;1.92;;
76801;SDS011;66403;50.832;10.950;2023-04-15T13:42:12;2.75;;;1.90;;
76801;SDS011;66403;50.832;10.950;2023-04-15T13:47:12;1.63;;;1.38;;
76801;SDS011;66403;50.832;10.950;2023-04-15T13:52:15;3.13;;;1.73;;
76801;SDS011;66403;50.832;10.950;2023-04-15T13:57:15;3.50;;;2.08;;
76801;SDS011;66403;50.832;10.950;2023-04-15T14:02:16;2.75;;;2.03;;
76801;SDS011;66403;50.832;10.950;2023-04-15T14:07:16;3.10;;;2.05;;
76801;SDS011;66403;50.832;10.950;2023-04-15T14:12:16;3.60;;;2.20;;
76801;SDS011;66403;50.832;10.950;2023-04-15T14:17:17;3.08;;;1.90;;
76801;SDS011;66403;50.832;10.950;2023-04-15T14:22:17;3.75;;;2.00;;
76801;SDS011;66403;50.832;10.950;2023-04-15T14:27:18;3.10;;;1.85;;
76801;SDS011;66403;50.832;10.950;2023-04-15T14:32:19;3.00;;;2.08;;
76801;SDS011;66403;50.832;10.950;2023-04-15T14:37:20;2.95;;;1.80;;
76801;SDS011;66403;50.832;10.950;2023-04-15T14:42:20;3.72;;;2.50;;
76801;SDS011;66403;50.832;10.950;2023-04-15T14:47:20;3.28;;;1.88;;
76801;SDS011;66403;50.832;10.950;2023-04-15T14:52:21;2.53;;;2.25;;
76801;SDS011;66403;50.832;10.950;2023-04-15T14:57:21;2.70;;;2.22;;
76801;SDS011;66403;50.832;10.950;2023-04-15T15:02:22;3.17;;;2.58;;
76801;SDS011;66403;50.832;10.950;2023-04-15T15:07:22;3.78;;;2.45;;
76801;SDS011;66403;50.832;10.950;2023-04-15T15:12:23;4.30;;;2.22;;
76801;SDS011;66403;50.832;10.950;2023-04-15T15:17:23;2.63;;;1.90;;
76801;SDS011;66403;50.832;10.950;2023-04-15T15:22:24;3.63;;;2.42;;
76801;SDS011;66403;50.832;10.950;2023-04-15T15:27:25;4.90;;;2.88;;
76801;SDS011;66403;50.832;10.950;2023-04-15T15:32:25;4.50;;;2.78;;
76801;SDS011;66403;50.832;10.950;2023-04-15T15:37:26;4.43;;;3.40;;
76801;SDS011;66403;50.832;10.950;2023-04-15T15:42:26;3.08;;;2.22;;
76801;SDS011;66403;50.832;10.950;2023-04-15T15:47:30;5.60;;;3.03;;
76801;SDS011;66403;50.832;10.950;2023-04-15T15:52:31;4.25;;;2.92;;
76801;SDS011;66403;50.832;10.950;2023-04-15T15:57:31;3.72;;;2.72;;
76801;SDS011;66403;50.832;10.950;2023-04-15T16:02:31;4.32;;;2.30;;
76801;SDS011;66403;50.832;10.950;2023-04-15T16:07:32;5.25;;;2.72;;
76801;SDS011;66403;50.832;10.950;2023-04-15T16:12:32;7.38;;;4.03;;
76801;SDS011;66403;50.832;10.950;2023-04-15T16:17:33;6.85;;;4.43;;
76801;SDS011;66403;50.832;10.950;2023-04-15T16:22:33;4.68;;;3.15;;
76801;SDS011;66403;50.832;10.950;2023-04-15T16:27:34;3.38;;;2.33;;
76801;SDS011;66403;50.832;10.950;2023-04-15T16:32:35;6.65;;;3.35;;
76801;SDS011;66403;50.832;10.950;2023-04-15T16:37:36;5.40;;;3.38;;
76801;SDS011;66403;50.832;10.950;2023-04-15T16:42:36;6.28;;;4.35;;
76801;SDS011;66403;50.832;10.950;2023-04-15T16:47:37;7.80;;;4.28;;
76801;SDS011;66403;50.832;10.950;2023-04-15T16:52:37;6.05;;;3.45;;
76801;SDS011;66403;50.832;10.950;2023-04-15T16:57:38;6.97;;;4.13;;
76801;SDS011;66403;50.832;10.950;2023-04-15T17:02:38;8.88;;;5.53;;
76801;SDS011;66403;50.832;10.950;2023-04-15T17:07:39;7.43;;;4.28;;
76801;SDS011;66403;50.832;10.950;2023-04-15T17:12:39;6.43;;;3.92;;
76801;SDS011;66403;50.832;10.950;2023-04-15T17:17:39;7.63;;;4.72;;
76801;SDS011;66403;50.832;10.950;2023-04-15T17:22:40;10.00;;;4.93;;
76801;SDS011;66403;50.832;10.950;2023-04-15T17:27:40;7.95;;;3.60;;
76801;SDS011;66403;50.832;10.950;2023-04-15T17:32:41;5.18;;;3.33;;
76801;SDS011;66403;50.832;10.950;2023-04-15T17:37:41;7.53;;;4.22;;
76801;SDS011;66403;50.832;10.950;2023-04-15T17:42:42;7.07;;;4.10;;
76801;SDS011;66403;50.832;10.950;2023-04-15T17:47:42;7.43;;;4.25;;
76801;SDS011;66403;50.832;10.950;2023-04-15T17:52:43;8.27;;;4.50;;
76801;SDS011;66403;50.832;10.950;2023-04-15T17:57:43;7.45;;;4.07;;
76801;SDS011;66403;50.832;10.950;2023-04-15T18:02:45;6.25;;;4.18;;
76801;SDS011;66403;50.832;10.950;2023-04-15T18:07:49;7.32;;;4.30;;
76801;SDS011;66403;50.832;10.950;2023-04-15T18:12:50;7.75;;;4.35;;
76801;SDS011;66403;50.832;10.950;2023-04-15T18:17:50;9.63;;;5.18;;
76801;SDS011;66403;50.832;10.950;2023-04-15T18:22:51;12.57;;;5.88;;
76801;SDS011;66403;50.832;10.950;2023-04-15T18:27:53;10.20;;;5.05;;
76801;SDS011;66403;50.832;10.950;2023-04-15T18:32:54;9.30;;;4.97;;
76801;SDS011;66403;50.832;10.950;2023-04-15T18:37:57;8.60;;;5.05;;
76801;SDS011;66403;50.832;10.950;2023-04-15T18:42:58;11.07;;;5.88;;
76801;SDS011;66403;50.832;10.950;2023-04-15T18:47:59;7.50;;;4.60;;
76801;SDS011;66403;50.832;10.950;2023-04-15T18:52:59;7.53;;;4.88;;
76801;SDS011;66403;50.832;10.950;2023-04-15T18:58:00;11.57;;;6.70;;
76801;SDS011;66403;50.832;10.950;2023-04-15T19:03:01;11.30;;;5.70;;
76801;SDS011;66403;50.832;10.950;2023-04-15T19:08:02;10.93;;;5.90;;
76801;SDS011;66403;50.832;10.950;2023-04-15T19:13:03;9.38;;;6.93;;
76801;SDS011;66403;50.832;10.950;2023-04-15T19:18:04;9.60;;;5.95;;
76801;SDS011;66403;50.832;10.950;2023-04-15T19:23:09;10.48;;;6.05;;
76801;SDS011;66403;50.832;10.950;2023-04-15T19:28:10;11.77;;;6.93;;
76801;SDS011;66403;50.832;10.950;2023-04-15T19:33:10;12.43;;;6.78;;
76801;SDS011;66403;50.832;10.950;2023-04-15T19:38:11;14.77;;;8.05;;
76801;SDS011;66403;50.832;10.950;2023-04-15T19:43:11;10.88;;;6.90;;
76801;SDS011;66403;50.832;10.950;2023-04-15T19:48:12;12.43;;;6.53;;
76801;SDS011;66403;50.832;10.950;2023-04-15T19:53:12;11.93;;;6.63;;
76801;SDS011;66403;50.832;10.950;2023-04-15T19:58:13;12.27;;;6.93;;
76801;SDS011;66403;50.832;10.950;2023-04-15T20:03:14;12.07;;;6.68;;
76801;SDS011;66403;50.832;10.950;2023-04-15T20:08:15;12.48;;;7.57;;
76801;SDS011;66403;50.832;10.950;2023-04-15T20:13:15;8.98;;;6.18;;
76801;SDS011;66403;50.832;10.950;2023-04-15T20:18:15;12.43;;;6.50;;
76801;SDS011;66403;50.832;10.950;2023-04-15T20:23:16;9.80;;;6.82;;
76801;SDS011;66403;50.832;10.950;2023-04-15T20:28:17;14.05;;;8.13;;
76801;SDS011;66403;50.832;10.950;2023-04-15T20:33:18;13.60;;;8.10;;
76801;SDS011;66403;50.832;10.950;2023-04-15T20:38:18;12.75;;;8.35;;
76801;SDS011;66403;50.832;10.950;2023-04-15T20:43:19;12.73;;;7.78;;
76801;SDS011;66403;50.832;10.950;2023-04-15T20:48:21;11.25;;;8.55;;
76801;SDS011;66403;50.832;10.950;2023-04-15T20:53:21;12.80;;;7.25;;
76801;SDS011;66403;50.832;10.950;2023-04-15T20:58:22;13.60;;;6.80;;
76801;SDS011;66403;50.832;10.950;2023-04-15T21:03:22;11.70;;;7.07;;
76801;SDS011;66403;50.832;10.950;2023-04-15T21:08:23;10.82;;;7.43;;
76801;SDS011;66403;50.832;10.950;2023-04-15T21:13:28;14.82;;;8.52;;
76801;SDS011;66403;50.832;10.950;2023-04-15T21:18:28;14.93;;;8.50;;
76801;SDS011;66403;50.832;10.950;2023-04-15T21:23:29;15.32;;;7.63;;
76801;SDS011;66403;50.832;10.950;2023-04-15T21:28:29;14.80;;;8.57;;
76801;SDS011;66403;50.832;10.950;2023-04-15T21:33:30;13.20;;;8.13;;
76801;SDS011;66403;50.832;10.950;2023-04-15T21:38:31;13.57;;;7.57;;
76801;SDS011;66403;50.832;10.950;2023-04-15T21:43:31;14.52;;;7.65;;
76801;SDS011;66403;50.832;10.950;2023-04-15T21:48:32;14.00;;;7.97;;
76801;SDS011;66403;50.832;10.950;2023-04-15T21:53:32;11.82;;;7.30;;
76801;SDS011;66403;50.832;10.950;2023-04-15T21:58:33;12.13;;;7.63;;
76801;SDS011;66403;50.832;10.950;2023-04-15T22:03:34;12.55;;;6.90;;
76801;SDS011;66403;50.832;10.950;2023-04-15T22:08:34;14.27;;;8.02;;
76801;SDS011;66403;50.832;10.950;2023-04-15T22:13:35;10.50;;;6.95;;
76801;SDS011;66403;50.832;10.950;2023-04-15T22:18:35;12.15;;;7.80;;
76801;SDS011;66403;50.832;10.950;2023-04-15T22:23:36;10.38;;;6.95;;
76801;SDS011;66403;50.832;10.950;2023-04-15T22:28:36;14.63;;;8.27;;
76801;SDS011;66403;50.832;10.950;2023-04-15T22:33:37;12.45;;;6.75;;
76801;SDS011;66403;50.832;10.950;2023-04-15T22:38:37;14.70;;;8.43;;
76801;SDS011;66403;50.832;10.950;2023-04-15T22:43:38;12.18;;;7.85;;
76801;SDS011;66403;50.832;10.950;2023-04-15T22:48:39;11.75;;;6.90;;
76801;SDS011;66403;50.832;10.950;2023-04-15T22:53:41;14.40;;;7.45;;
76801;SDS011;66403;50.832;10.950;2023-04-15T22:58:42;11.23;;;6.95;;
76801;SDS011;66403;50.832;10.950;2023-04-15T23:03:43;12.50;;;7.53;;
76801;SDS011;66403;50.832;10.950;2023-04-15T23:08:44;13.25;;;7.82;;
76801;SDS011;66403;50.832;10.950;2023-04-15T23:13:44;11.55;;;6.60;;
76801;SDS011;66403;50.832;10.950;2023-04-15T23:18:45;12.23;;;6.85;;
76801;SDS011;66403;50.832;10.950;2023-04-15T23:23:45;11.73;;;6.80;;
76801;SDS011;66403;50.832;10.950;2023-04-15T23:28:45;11.45;;;6.72;;
76801;SDS011;66403;50.832;10.950;2023-04-15T23:33:46;11.77;;;6.38;;
76801;SDS011;66403;50.832;10.950;2023-04-15T23:38:46;8.55;;;5.82;;
76801;SDS011;66403;50.832;10.950;2023-04-15T23:43:47;7.30;;;4.07;;
76801;SDS011;66403;50.832;10.950;2023-04-15T23:48:48;7.30;;;4.95;;
76801;SDS011;66403;50.832;10.950;2023-04-15T23:53:49;8.32;;;5.30;;
76801;SDS011;66403;50.832;10.950;2023-04-15T23:58:51;6.53;;;4.75;;
